Time;durP1;ratioP1;P1;durP2;ratioP2;P2;SDS_P1;SDS_P2;PMS_P1;PMS_P2;Temp;Humidity;BMP_temperature;BMP_pressure;BME280_temperature;BME280_humidity;BME280_pressure;Samples;Min_cycle;Max_cycle;Signal;HPM_P1;HPM_P2
2024/01/10 00:01:20;;;;;;;1999.90;999.90;;;0.50;99.90;;;;;;5052613;28;20052;-74
2024/01/10 00:03:46;;;;;;;1999.90;999.90;;;0.50;99.90;;;;;;5052588;28;20033;-74
2024/01/10 00:06:12;;;;;;;1999.90;999.90;;;0.50;99.90;;;;;;5052627;28;20032;-69
2024/01/10 00:08:37;;;;;;;1999.90;999.90;;;0.50;99.90;;;;;;5052484;28;20476;-69
2024/01/10 00:11:03;;;;;;;1999.90;999.90;;;0.50;99.90;;;;;;5052229;28;20032;-69
2024/01/10 00:13:31;;;;;;;1999.90;999.90;;;0.50;99.90;;;;;;5052547;28;20472;-74
2024/01/10 00:15:58;;;;;;;1999.90;999.90;;;0.50;99.90;;;;;;5052360;28;20053;-74
2024/01/10 00:18:24;;;;;;;1999.90;999.90;;;0.50;99.90;;;;;;5051753;28;20488;-68
2024/01/10 00:20:53;;;;;;;1999.90;999.90;;;0.50;99.90;;;;;;5051760;28;20035;-69
2024/01/10 00:23:20;;;;;;;1999.90;999.90;;;0.50;99.90;;;;;;5052656;28;20091;-69
2024/01/10 00:25:46;;;;;;;1999.90;999.90;;;0.50;99.90;;;;;;5057544;28;20019;-74
2024/01/10 00:28:11;;;;;;;1999.90;999.90;;;0.60;99.90;;;;;;5072384;28;20025;-73
2024/01/10 00:30:38;;;;;;;1999.90;999.90;;;0.60;99.90;;;;;;5072384;28;20028;-74
2024/01/10 00:33:04;;;;;;;1999.90;999.90;;;0.60;99.90;;;;;;5056710;28;20018;-68
2024/01/10 00:35:30;;;;;;;1999.90;999.90;;;0.60;99.90;;;;;;5052249;28;20028;-69
2024/01/10 00:37:55;;;;;;;1999.90;999.90;;;0.70;99.90;;;;;;5050047;28;20483;-68
2024/01/10 00:40:21;;;;;;;1999.90;999.90;;;0.60;99.90;;;;;;5036119;28;20125;-69
2024/01/10 00:42:47;;;;;;;1999.90;999.90;;;0.60;99.90;;;;;;5056154;28;20094;-69
2024/01/10 00:45:13;;;;;;;1999.90;999.90;;;0.60;99.90;;;;;;5056450;28;20434;-69
2024/01/10 00:47:38;;;;;;;1999.90;999.90;;;0.60;99.90;;;;;;5055570;28;20029;-69
2024/01/10 00:50:05;;;;;;;1999.90;999.90;;;0.50;99.90;;;;;;5056017;28;20502;-74
2024/01/10 00:52:31;;;;;;;1999.90;999.90;;;0.60;99.90;;;;;;5056012;28;20104;-74
2024/01/10 00:54:56;;;;;;;1999.90;999.90;;;0.60;99.90;;;;;;5056209;28;20064;-69
2024/01/10 00:57:22;;;;;;;1999.90;999.90;;;0.60;99.90;;;;;;5056316;28;20040;-69
2024/01/10 00:59:48;;;;;;;1999.90;999.90;;;0.60;99.90;;;;;;5055902;28;20036;-68
2024/01/10 01:02:13;;;;;;;1999.90;999.90;;;0.50;99.90;;;;;;5055880;28;20503;-74
2024/01/10 01:04:39;;;;;;;1999.90;999.90;;;0.60;99.90;;;;;;5056083;28;20114;-69
2024/01/10 01:07:04;;;;;;;1999.90;999.90;;;0.50;99.90;;;;;;5055273;28;20056;-74
2024/01/10 01:09:30;;;;;;;1999.90;999.90;;;0.60;99.90;;;;;;5055457;28;20052;-69
2024/01/10 01:11:56;;;;;;;1999.90;999.90;;;0.60;99.90;;;;;;5055840;28;20039;-69
2024/01/10 01:14:21;;;;;;;1999.90;999.90;;;0.60;99.90;;;;;;5055669;28;20060;-74
2024/01/10 01:16:47;;;;;;;1999.90;999.90;;;0.60;99.90;;;;;;5055563;28;20091;-68
2024/01/10 01:19:12;;;;;;;1999.90;999.90;;;0.60;99.90;;;;;;5055665;28;20033;-68
2024/01/10 01:21:38;;;;;;;1999.90;999.90;;;0.60;99.90;;;;;;5055418;28;20502;-74
2024/01/10 01:24:04;;;;;;;1999.90;999.90;;;0.60;99.90;;;;;;5055473;28;20028;-69
2024/01/10 01:26:29;;;;;;;1999.90;999.90;;;0.60;99.90;;;;;;5066769;28;20541;-68
2024/01/10 01:28:55;;;;;;;1999.90;999.90;;;0.70;99.90;;;;;;5075358;28;20507;-68
2024/01/10 01:31:21;;;;;;;1999.90;999.90;;;0.70;99.90;;;;;;5073885;28;20028;-69
2024/01/10 01:33:47;;;;;;;1999.90;999.90;;;0.70;99.90;;;;;;5055180;28;20049;-69
2024/01/10 01:36:12;;;;;;;1999.90;999.90;;;0.70;99.90;;;;;;5055191;28;20115;-69
2024/01/10 01:38:38;;;;;;;1999.90;999.90;;;0.60;99.90;;;;;;5054871;28;20029;-68
2024/01/10 01:41:05;;;;;;;1999.90;999.90;;;0.60;99.90;;;;;;5055024;28;20103;-69
2024/01/10 01:43:32;;;;;;;1999.90;999.90;;;0.70;99.90;;;;;;5055223;28;20025;-69
2024/01/10 01:45:57;;;;;;;1999.90;999.90;;;0.60;99.90;;;;;;5054940;28;20476;-69
2024/01/10 01:48:27;;;;;;;1999.90;999.90;;;0.60;99.90;;;;;;5055183;28;20025;-69
2024/01/10 01:51:00;;;;;;;1999.90;999.90;;;0.60;99.90;;;;;;5054667;28;20032;-69
2024/01/10 01:53:28;;;;;;;1999.90;999.90;;;0.70;99.90;;;;;;5054953;28;20095;-74
2024/01/10 01:55:55;;;;;;;1999.90;999.90;;;0.60;99.90;;;;;;5054964;28;20037;-74
2024/01/10 01:58:22;;;;;;;1999.90;999.90;;;0.70;99.90;;;;;;5054751;28;20079;-74
2024/01/10 02:00:49;;;;;;;1999.90;999.90;;;0.60;99.90;;;;;;5054911;28;20040;-74
2024/01/10 02:03:15;;;;;;;1999.90;999.90;;;0.60;99.90;;;;;;5036901;28;20510;-74
2024/01/10 02:05:41;;;;;;;1999.90;999.90;;;0.60;99.90;;;;;;5054481;28;20124;-69
2024/01/10 02:08:08;;;;;;;1999.90;999.90;;;0.60;99.90;;;;;;5054762;28;20064;-69
2024/01/10 02:10:34;;;;;;;1999.90;999.90;;;0.60;99.90;;;;;;5054345;28;20075;-68
2024/01/10 02:13:00;;;;;;;1999.90;999.90;;;0.70;99.90;;;;;;5054924;28;20029;-69
2024/01/10 02:15:26;;;;;;;1999.90;999.90;;;0.70;99.90;;;;;;5054418;28;20049;-74
2024/01/10 02:17:51;;;;;;;1999.90;999.90;;;0.70;99.90;;;;;;5054679;28;20455;-68
2024/01/10 02:20:17;;;;;;;1999.90;999.90;;;0.70;99.90;;;;;;5054552;28;20535;-74
2024/01/10 02:22:44;;;;;;;1999.90;999.90;;;0.70;99.90;;;;;;5054513;28;20059;-74
2024/01/10 02:25:13;;;;;;;1999.90;999.90;;;0.70;99.90;;;;;;5054645;28;20029;-74
2024/01/10 02:27:42;;;;;;;1999.90;999.90;;;0.70;99.90;;;;;;5074297;28;20023;-69
2024/01/10 02:30:09;;;;;;;1999.90;999.90;;;0.80;99.90;;;;;;5074464;28;20032;-69
2024/01/10 02:32:35;;;;;;;1999.90;999.90;;;0.80;99.90;;;;;;5062716;28;20018;-74
2024/01/10 02:35:00;;;;;;;1999.90;999.90;;;0.80;99.90;;;;;;5054288;28;20028;-69
2024/01/10 02:37:26;;;;;;;1999.90;999.90;;;0.70;99.90;;;;;;5054042;28;20025;-68
2024/01/10 02:39:52;;;;;;;1999.90;999.90;;;0.70;99.90;;;;;;5053552;28;20032;-74
2024/01/10 02:42:18;;;;;;;1999.90;999.90;;;0.70;99.90;;;;;;5054403;28;20033;-68
2024/01/10 02:44:43;;;;;;;1999.90;999.90;;;0.80;99.90;;;;;;5054087;28;20029;-68
2024/01/10 02:47:11;;;;;;;1999.90;999.90;;;0.80;99.90;;;;;;5053866;28;20025;-74
2024/01/10 02:49:36;;;;;;;1999.90;999.90;;;0.70;99.90;;;;;;5054137;28;20036;-69
2024/01/10 02:52:02;;;;;;;1999.90;999.90;;;0.70;99.90;;;;;;5053753;28;20430;-69
2024/01/10 02:54:28;;;;;;;1999.90;999.90;;;0.70;99.90;;;;;;5054025;28;20051;-69
2024/01/10 02:56:53;;;;;;;1999.90;999.90;;;0.70;99.90;;;;;;5053662;28;20505;-68
2024/01/10 02:59:19;;;;;;;1999.90;999.90;;;0.70;99.90;;;;;;5053804;28;20035;-68
2024/01/10 03:01:45;;;;;;;1999.90;999.90;;;0.80;99.90;;;;;;5053262;28;20079;-73
2024/01/10 03:04:10;;;;;;;1999.90;999.90;;;0.80;99.90;;;;;;5052439;28;20029;-74
2024/01/10 03:06:36;;;;;;;1999.90;999.90;;;0.80;99.90;;;;;;5053596;28;20488;-74
2024/01/10 03:09:02;;;;;;;1999.90;999.90;;;0.80;99.90;;;;;;5053289;28;20028;-68
2024/01/10 03:11:27;;;;;;;1999.90;999.90;;;0.80;99.90;;;;;;5053342;28;20502;-69
2024/01/10 03:14:22;;;;;;;1999.90;999.90;;;0.80;99.90;;;;;;5053647;28;20119;-74
2024/01/10 03:16:48;;;;;;;1999.90;999.90;;;0.80;99.90;;;;;;5016622;28;20053;-74
2024/01/10 03:19:15;;;;;;;1999.90;999.90;;;0.80;99.90;;;;;;5033722;28;20091;-69
2024/01/10 03:21:40;;;;;;;1999.90;999.90;;;0.80;99.90;;;;;;5033532;28;20073;-68
2024/01/10 03:24:06;;;;;;;1999.90;999.90;;;0.80;99.90;;;;;;5033381;28;20447;-69
2024/01/10 03:26:32;;;;;;;1999.90;999.90;;;0.80;99.90;;;;;;5033528;28;20033;-68
2024/01/10 03:28:58;;;;;;;1999.90;999.90;;;0.80;99.90;;;;;;5033299;28;20152;-74
2024/01/10 03:31:24;;;;;;;1999.90;999.90;;;0.80;99.90;;;;;;5031574;28;20025;-74
2024/01/10 03:33:50;;;;;;;1999.90;999.90;;;0.80;99.90;;;;;;5013653;28;20431;-74
2024/01/10 03:36:17;;;;;;;1999.90;999.90;;;0.70;99.90;;;;;;5013174;28;20049;-74
2024/01/10 03:38:43;;;;;;;1999.90;999.90;;;0.70;99.90;;;;;;5013165;28;20500;-68
2024/01/10 03:41:16;;;;;;;1999.90;999.90;;;0.70;99.90;;;;;;5013271;28;20473;-69
2024/01/10 03:43:42;;;;;;;1999.90;999.90;;;0.70;99.90;;;;;;5013592;28;20030;-74
2024/01/10 03:46:08;;;;;;;1999.90;999.90;;;0.70;99.90;;;;;;5013145;28;20040;-68
2024/01/10 03:48:34;;;;;;;1999.90;999.90;;;0.70;99.90;;;;;;5012192;28;20402;-74
2024/01/10 03:51:00;;;;;;;1999.90;999.90;;;0.70;99.90;;;;;;5012585;28;20190;-68
2024/01/10 03:53:25;;;;;;;1999.90;999.90;;;0.70;99.90;;;;;;5013502;28;20030;-74
2024/01/10 03:55:51;;;;;;;1999.90;999.90;;;0.70;99.90;;;;;;5013118;28;20481;-74
2024/01/10 03:58:17;;;;;;;1999.90;999.90;;;0.70;99.90;;;;;;5013382;28;20049;-69
2024/01/10 04:00:42;;;;;;;1999.90;999.90;;;0.70;99.90;;;;;;5012505;28;20036;-68
2024/01/10 04:03:08;;;;;;;1999.90;999.90;;;0.70;99.90;;;;;;5012904;28;20540;-69
2024/01/10 04:05:33;;;;;;;1999.90;999.90;;;0.70;99.90;;;;;;5013069;28;20366;-69
2024/01/10 04:07:59;;;;;;;1999.90;999.90;;;0.70;99.90;;;;;;5013396;28;20068;-73
2024/01/10 04:10:25;;;;;;;1999.90;999.90;;;0.60;99.90;;;;;;5026340;28;20160;-74
2024/01/10 04:12:51;;;;;;;1999.90;999.90;;;0.70;99.90;;;;;;5032620;28;20104;-68
2024/01/10 04:15:17;;;;;;;1999.90;999.90;;;0.70;99.90;;;;;;5037012;28;20040;-68
2024/01/10 04:17:43;;;;;;;1999.90;999.90;;;0.60;99.90;;;;;;5052339;28;20043;-69
2024/01/10 04:20:09;;;;;;;1999.90;999.90;;;0.60;99.90;;;;;;5052602;28;20108;-69
2024/01/10 04:22:35;;;;;;;1999.90;999.90;;;0.70;99.90;;;;;;5052556;28;20021;-69
2024/01/10 04:25:03;;;;;;;1999.90;999.90;;;0.70;99.90;;;;;;5052481;28;20048;-74
2024/01/10 04:27:28;;;;;;;1999.90;999.90;;;0.60;99.90;;;;;;5071743;28;20111;-74
2024/01/10 04:29:54;;;;;;;1999.90;999.90;;;0.60;99.90;;;;;;5072480;28;20059;-69
2024/01/10 04:32:20;;;;;;;1999.90;999.90;;;0.60;99.90;;;;;;5062543;28;20033;-73
2024/01/10 04:34:46;;;;;;;1999.90;999.90;;;0.70;99.90;;;;;;5052345;28;20040;-74
2024/01/10 04:37:11;;;;;;;1999.90;999.90;;;0.70;99.90;;;;;;5052224;28;20041;-74
2024/01/10 04:39:40;;;;;;;1999.90;999.90;;;0.70;99.90;;;;;;5052044;28;20079;-69
2024/01/10 04:42:06;;;;;;;1999.90;999.90;;;0.70;99.90;;;;;;5052416;28;20418;-69
2024/01/10 04:44:32;;;;;;;1999.90;999.90;;;0.60;99.90;;;;;;5052342;28;20032;-74
2024/01/10 04:46:57;;;;;;;1999.90;999.90;;;0.60;99.90;;;;;;5052190;28;20445;-74
2024/01/10 04:49:23;;;;;;;1999.90;999.90;;;0.50;99.90;;;;;;5052473;28;20387;-74
2024/01/10 04:51:49;;;;;;;1999.90;999.90;;;0.60;99.90;;;;;;5052036;28;20096;-68
2024/01/10 04:54:15;;;;;;;1999.90;999.90;;;0.60;99.90;;;;;;5052108;28;20025;-73
2024/01/10 04:56:41;;;;;;;1999.90;999.90;;;0.60;99.90;;;;;;5052259;28;20074;-74
2024/01/10 04:59:07;;;;;;;1999.90;999.90;;;0.60;99.90;;;;;;5052214;28;20033;-68
2024/01/10 05:01:32;;;;;;;1999.90;999.90;;;0.60;99.90;;;;;;5052095;28;20392;-74
2024/01/10 05:03:58;;;;;;;1999.90;999.90;;;0.50;99.90;;;;;;5051875;28;20033;-73
2024/01/10 05:06:24;;;;;;;1999.90;999.90;;;0.50;99.90;;;;;;5052371;28;20507;-72
2024/01/10 05:08:50;;;;;;;1999.90;999.90;;;0.50;99.90;;;;;;5050900;28;20480;-69
2024/01/10 05:11:16;;;;;;;1999.90;999.90;;;0.60;99.90;;;;;;5052080;28;20021;-69
2024/01/10 05:13:45;;;;;;;1999.90;999.90;;;0.40;99.90;;;;;;5052066;28;20036;-73
2024/01/10 05:16:10;;;;;;;1999.90;999.90;;;0.40;99.90;;;;;;5051782;28;20045;-73
2024/01/10 05:18:36;;;;;;;1999.90;999.90;;;0.40;99.90;;;;;;5051879;28;20041;-68
2024/01/10 05:21:03;;;;;;;1999.90;999.90;;;0.40;99.90;;;;;;5052081;28;20021;-69
2024/01/10 05:23:29;;;;;;;1999.90;999.90;;;0.40;99.90;;;;;;5052043;28;20111;-68
2024/01/10 05:25:55;;;;;;;1999.90;999.90;;;0.50;99.90;;;;;;5059840;28;20107;-74
2024/01/10 05:28:21;;;;;;;1999.90;999.90;;;0.40;99.90;;;;;;5075379;28;20024;-74
2024/01/10 05:30:47;;;;;;;1999.90;999.90;;;0.40;99.90;;;;;;5075142;28;20368;-68
2024/01/10 05:33:12;;;;;;;1999.90;999.90;;;0.50;99.90;;;;;;5058481;28;20029;-74
2024/01/10 05:35:41;;;;;;;1999.90;999.90;;;0.40;99.90;;;;;;5055146;28;20539;-73
2024/01/10 05:38:07;;;;;;;1999.90;999.90;;;0.50;99.90;;;;;;5055145;28;20060;-69
2024/01/10 05:40:33;;;;;;;1999.90;999.90;;;0.50;99.90;;;;;;5054900;28;20511;-74
2024/01/10 05:43:01;;;;;;;1999.90;999.90;;;0.50;99.90;;;;;;5055436;28;20068;-74
2024/01/10 05:45:28;;;;;;;1999.90;999.90;;;0.40;99.90;;;;;;5055356;28;20029;-69
2024/01/10 05:47:54;;;;;;;1999.90;999.90;;;0.40;99.90;;;;;;5054832;28;20028;-74
2024/01/10 05:50:19;;;;;;;1999.90;999.90;;;0.40;99.90;;;;;;5055240;28;20549;-69
2024/01/10 05:52:45;;;;;;;1999.90;999.90;;;0.50;99.90;;;;;;5055042;28;20029;-74
2024/01/10 05:55:11;;;;;;;1999.90;999.90;;;0.40;99.90;;;;;;5055028;28;20479;-74
2024/01/10 05:57:37;;;;;;;1999.90;999.90;;;0.40;99.90;;;;;;5055229;28;20025;-73
2024/01/10 06:00:04;;;;;;;1999.90;999.90;;;0.40;99.90;;;;;;5064860;28;20447;-73
2024/01/10 06:02:30;;;;;;;1999.90;999.90;;;0.40;99.90;;;;;;5075004;28;20395;-73
2024/01/10 06:04:56;;;;;;;1999.90;999.90;;;0.40;99.90;;;;;;5074462;28;20028;-74
2024/01/10 06:07:22;;;;;;;1999.90;999.90;;;0.40;99.90;;;;;;5060557;28;20115;-74
2024/01/10 06:09:47;;;;;;;1999.90;999.90;;;0.40;99.90;;;;;;5054329;28;20020;-74
2024/01/10 06:12:13;;;;;;;1999.90;999.90;;;0.40;99.90;;;;;;5054315;28;20039;-68
2024/01/10 06:14:39;;;;;;;1999.90;999.90;;;0.40;99.90;;;;;;5054784;28;20021;-74
2024/01/10 06:17:05;;;;;;;1999.90;999.90;;;0.50;99.90;;;;;;5054253;28;20415;-74
2024/01/10 06:19:32;;;;;;;1999.90;999.90;;;0.50;99.90;;;;;;5054457;28;20071;-74
2024/01/10 06:21:59;;;;;;;1999.90;999.90;;;0.50;99.90;;;;;;5054343;28;20029;-69
2024/01/10 06:24:25;;;;;;;1999.90;999.90;;;0.40;99.90;;;;;;5053969;28;20040;-68
2024/01/10 06:26:50;;;;;;;1999.90;999.90;;;0.40;99.90;;;;;;5068522;28;20039;-68
2024/01/10 06:29:16;;;;;;;1999.90;999.90;;;0.40;99.90;;;;;;5074382;28;20096;-68
2024/01/10 06:31:42;;;;;;;1999.90;999.90;;;0.40;99.90;;;;;;5064820;28;20103;-69
2024/01/10 06:34:08;;;;;;;1999.90;999.90;;;0.40;99.90;;;;;;5046424;28;20052;-73
2024/01/10 06:36:34;;;;;;;1999.90;999.90;;;0.40;99.90;;;;;;5047195;28;20033;-69
2024/01/10 06:39:00;;;;;;;1999.90;999.90;;;0.40;99.90;;;;;;5051705;28;20102;-68
2024/01/10 06:41:25;;;;;;;1999.90;999.90;;;0.40;99.90;;;;;;5045414;28;20058;-69
2024/01/10 06:43:53;;;;;;;1999.90;999.90;;;0.40;99.90;;;;;;5042489;28;20464;-74
2024/01/10 06:46:20;;;;;;;1999.90;999.90;;;0.40;99.90;;;;;;5036386;28;20495;-73
2024/01/10 06:48:46;;;;;;;1999.90;999.90;;;0.40;99.90;;;;;;5052930;28;20029;-69
2024/01/10 06:51:13;;;;;;;1999.90;999.90;;;0.40;99.90;;;;;;5052951;28;20035;-69
2024/01/10 06:53:39;;;;;;;1999.90;999.90;;;0.40;99.90;;;;;;5049435;28;20063;-69
2024/01/10 06:56:06;;;;;;;1999.90;999.90;;;0.40;99.90;;;;;;5041509;28;20064;-69
2024/01/10 06:58:33;;;;;;;1999.90;999.90;;;0.40;99.90;;;;;;5038740;28;20090;-73
2024/01/10 07:01:04;;;;;;;1999.90;999.90;;;0.40;99.90;;;;;;5053102;28;20397;-74
2024/01/10 07:03:29;;;;;;;1999.90;999.90;;;0.40;99.90;;;;;;5043842;28;20031;-69
2024/01/10 07:05:57;;;;;;;1999.90;999.90;;;0.30;99.90;;;;;;5052528;28;20045;-69
2024/01/10 07:08:22;;;;;;;1999.90;999.90;;;0.40;99.90;;;;;;5051439;28;20067;-69
2024/01/10 07:10:48;;;;;;;1999.90;999.90;;;0.30;99.90;;;;;;5052158;28;20469;-74
2024/01/10 07:13:13;;;;;;;1999.90;999.90;;;0.40;99.90;;;;;;5048504;28;20037;-74
2024/01/10 07:15:39;;;;;;;1999.90;999.90;;;0.40;99.90;;;;;;5046644;28;20140;-69
2024/01/10 07:18:06;;;;;;;1999.90;999.90;;;0.40;99.90;;;;;;5039988;28;20045;-73
2024/01/10 07:20:32;;;;;;;1999.90;999.90;;;0.40;99.90;;;;;;5049953;28;20319;-69
2024/01/10 07:22:59;;;;;;;1999.90;999.90;;;0.30;99.90;;;;;;5045736;28;20044;-74
2024/01/10 07:25:25;;;;;;;1999.90;999.90;;;0.30;99.90;;;;;;5059039;28;20074;-74
2024/01/10 07:27:51;;;;;;;1999.90;999.90;;;0.40;99.90;;;;;;5050861;28;20391;-69
2024/01/10 07:30:17;;;;;;;1999.90;999.90;;;0.40;99.90;;;;;;5051033;28;20036;-69
2024/01/10 07:32:43;;;;;;;1999.90;999.90;;;0.40;99.90;;;;;;5041975;28;20036;-69
2024/01/10 07:35:10;;;;;;;1999.90;999.90;;;0.40;99.90;;;;;;5034021;28;20029;-69
2024/01/10 07:37:41;;;;;;;1999.90;999.90;;;0.50;99.90;;;;;;5046486;28;20526;-73
2024/01/10 07:40:10;;;;;;;1999.90;999.90;;;0.50;99.90;;;;;;5047290;28;20071;-73
2024/01/10 07:42:37;;;;;;;1999.90;999.90;;;0.50;99.90;;;;;;5050435;28;20037;-70
2024/01/10 07:45:06;;;;;;;1999.90;999.90;;;0.50;99.90;;;;;;5051232;28;20036;-74
2024/01/10 07:47:42;;;;;;;1999.90;999.90;;;0.40;99.90;;;;;;5041897;28;20029;-70
2024/01/10 07:50:09;;;;;;;1999.90;999.90;;;0.50;99.90;;;;;;5043979;28;20366;-79
2024/01/10 07:52:35;;;;;;;1999.90;999.90;;;0.40;99.90;;;;;;5037292;28;20107;-77
2024/01/10 07:55:04;;;;;;;1999.90;999.90;;;0.50;99.90;;;;;;5046340;28;20025;-73
2024/01/10 07:57:30;;;;;;;1999.90;999.90;;;0.50;99.90;;;;;;5041479;28;20044;-79
2024/01/10 07:59:56;;;;;;;1999.90;999.90;;;0.50;99.90;;;;;;5043302;28;20029;-73
2024/01/10 08:02:22;;;;;;;1999.90;999.90;;;0.50;99.90;;;;;;5048259;28;20098;-76
2024/01/10 08:04:48;;;;;;;1999.90;999.90;;;0.50;99.90;;;;;;5040782;28;20032;-78
2024/01/10 08:07:13;;;;;;;1999.90;999.90;;;0.50;99.90;;;;;;5044708;28;20035;-72
2024/01/10 08:09:39;;;;;;;1999.90;999.90;;;0.50;99.90;;;;;;5050083;28;20550;-78
2024/01/10 08:12:05;;;;;;;1999.90;999.90;;;0.50;99.90;;;;;;5027063;28;20108;-70
2024/01/10 08:14:31;;;;;;;1999.90;999.90;;;0.50;99.90;;;;;;5050128;28;20028;-77
2024/01/10 08:16:58;;;;;;;1999.90;999.90;;;0.60;99.90;;;;;;5050193;28;20049;-77
2024/01/10 08:19:27;;;;;;;1999.90;999.90;;;0.60;99.90;;;;;;5049748;28;20035;-73
2024/01/10 08:21:56;;;;;;;1999.90;999.90;;;0.60;99.90;;;;;;5049483;28;20390;-74
2024/01/10 08:24:22;;;;;;;1999.90;999.90;;;0.60;99.90;;;;;;5049631;28;20024;-75
2024/01/10 08:26:51;;;;;;;1999.90;999.90;;;0.60;99.90;;;;;;5050305;28;20123;-72
2024/01/10 08:29:18;;;;;;;1999.90;999.90;;;0.60;99.90;;;;;;5049273;28;20166;-75
2024/01/10 08:31:44;;;;;;;1999.90;999.90;;;0.70;99.90;;;;;;5049627;28;20595;-73
2024/01/10 08:34:10;;;;;;;1999.90;999.90;;;0.60;99.90;;;;;;5049155;28;20115;-73
2024/01/10 08:36:35;;;;;;;1999.90;999.90;;;0.60;99.90;;;;;;5045780;28;20036;-74
2024/01/10 08:39:03;;;;;;;1999.90;999.90;;;0.60;99.90;;;;;;5049379;28;20033;-74
2024/01/10 08:41:28;;;;;;;1999.90;999.90;;;0.80;99.90;;;;;;5043253;28;20121;-80
2024/01/10 08:43:54;;;;;;;1999.90;999.90;;;0.80;99.90;;;;;;5041900;28;20577;-78
2024/01/10 08:46:20;;;;;;;1999.90;999.90;;;0.80;99.90;;;;;;5035900;28;20075;-74
2024/01/10 08:48:47;;;;;;;1999.90;999.90;;;0.90;99.90;;;;;;5047603;28;20151;-75
2024/01/10 08:51:16;;;;;;;1999.90;999.90;;;0.90;99.90;;;;;;5050494;28;20111;-75
2024/01/10 08:53:42;;;;;;;1999.90;999.90;;;0.90;99.90;;;;;;5044960;28;20017;-80
2024/01/10 08:56:07;;;;;;;1999.90;999.90;;;0.90;99.90;;;;;;5050186;28;20085;-81
2024/01/10 08:58:33;;;;;;;1999.90;999.90;;;0.90;99.90;;;;;;5047906;28;20120;-82
2024/01/10 09:00:59;;;;;;;1999.90;999.90;;;0.90;99.90;;;;;;5050238;28;20029;-74
2024/01/10 09:03:24;;;;;;;1999.90;999.90;;;0.90;99.90;;;;;;5049725;28;20037;-75
2024/01/10 09:16:04;;;;;;;1999.90;999.90;;;1.30;99.90;;;;;;5070173;28;20489;-77
2024/01/10 09:18:30;;;;;;;1999.90;999.90;;;1.30;99.90;;;;;;5082790;28;20380;-77
2024/01/10 09:20:56;;;;;;;1999.90;999.90;;;1.40;99.90;;;;;;5078744;28;20032;-81
2024/01/10 09:23:21;;;;;;;1999.90;999.90;;;1.50;99.90;;;;;;5079455;28;20036;-78
2024/01/10 09:25:47;;;;;;;1999.90;999.90;;;1.70;99.90;;;;;;5076611;28;20415;-78
2024/01/10 09:28:13;;;;;;;1999.90;999.90;;;1.80;99.90;;;;;;5068791;28;20029;-77
2024/01/10 09:30:39;;;;;;;1999.90;999.90;;;1.90;99.90;;;;;;5066403;28;20029;-77
2024/01/10 09:33:05;;;;;;;1999.90;999.90;;;1.90;99.90;;;;;;5061400;28;20036;-78
2024/01/10 09:35:31;;;;;;;1999.90;999.90;;;1.90;99.90;;;;;;5062663;28;20657;-78
2024/01/10 09:37:56;;;;;;;1999.90;999.90;;;1.90;99.90;;;;;;5076912;28;20082;-78
2024/01/10 09:40:23;;;;;;;1999.90;999.90;;;1.80;99.90;;;;;;5083170;28;20119;-77
2024/01/10 09:42:54;;;;;;;1999.90;999.90;;;1.70;99.90;;;;;;5069804;28;20450;-77
2024/01/10 09:45:21;;;;;;;1999.90;999.90;;;1.60;99.90;;;;;;5081730;28;20087;-78
2024/01/10 09:47:52;;;;;;;1999.90;999.90;;;1.50;99.90;;;;;;5076611;28;20024;-76
2024/01/10 09:50:17;;;;;;;1999.90;999.90;;;1.40;99.90;;;;;;5071726;28;20102;-77
2024/01/10 09:52:53;;;;;;;1999.90;999.90;;;1.50;99.90;;;;;;5067609;28;20033;-78
2024/01/10 09:55:23;;;;;;;1999.90;999.90;;;1.50;99.90;;;;;;5087633;28;20028;-78
2024/01/10 09:57:49;;;;;;;1999.90;999.90;;;1.70;99.90;;;;;;5087272;28;20032;-81
2024/01/10 10:00:16;;;;;;;1999.90;999.90;;;1.80;99.90;;;;;;5081750;28;20478;-80
2024/01/10 10:02:42;;;;;;;1999.90;999.90;;;1.90;99.90;;;;;;5086441;28;20032;-83
2024/01/10 10:05:18;;;;;;;1999.90;999.90;;;1.90;99.90;;;;;;5087028;28;20029;-80
2024/01/10 10:07:47;;;;;;;1999.90;999.90;;;1.90;99.90;;;;;;5087059;28;20067;-81
2024/01/10 10:10:14;;;;;;;1999.90;999.90;;;2.00;99.90;;;;;;5076570;28;20033;-80
2024/01/10 10:12:53;;;;;;;1999.90;999.90;;;1.90;99.90;;;;;;5084061;28;20024;-80
2024/01/10 10:15:26;;;;;;;1999.90;999.90;;;1.80;99.90;;;;;;5079945;28;20135;-81
2024/01/10 10:17:53;;;;;;;1999.90;999.90;;;1.90;99.90;;;;;;5066735;28;20074;-79
2024/01/10 10:20:26;;;;;;;1999.90;999.90;;;1.90;99.90;;;;;;5067047;28;20747;-80
2024/01/10 10:23:17;;;;;;;1999.90;999.90;;;2.00;99.90;;;;;;5065680;28;20025;-80
2024/01/10 10:25:44;;;;;;;1999.90;999.90;;;2.00;99.90;;;;;;5070793;28;20063;-80
2024/01/10 10:28:09;;;;;;;1999.90;999.90;;;1.90;99.90;;;;;;5052869;28;20025;-80
2024/01/10 10:30:35;;;;;;;1999.90;999.90;;;2.00;99.90;;;;;;5056737;28;20040;-81
2024/01/10 10:33:07;;;;;;;1999.90;999.90;;;2.10;99.90;;;;;;5055113;28;20134;-79
2024/01/10 10:35:34;;;;;;;1999.90;999.90;;;2.20;99.90;;;;;;5062825;28;20408;-80
2024/01/10 10:38:00;;;;;;;1999.90;999.90;;;2.30;99.90;;;;;;5060061;28;20049;-80
2024/01/10 10:40:25;;;;;;;1999.90;999.90;;;2.30;99.90;;;;;;5052442;28;20021;-82
2024/01/10 10:42:56;;;;;;;1999.90;999.90;;;2.20;99.90;;;;;;5053468;28;20079;-83
2024/01/10 10:45:29;;;;;;;1999.90;999.90;;;2.20;99.90;;;;;;5059673;28;20399;-80
2024/01/10 10:48:00;;;;;;;1999.90;999.90;;;2.20;99.90;;;;;;5057831;28;20025;-80
2024/01/10 10:50:32;;;;;;;1999.90;999.90;;;2.20;99.90;;;;;;5065552;28;20024;-80
2024/01/10 10:53:00;;;;;;;1999.90;999.90;;;2.30;99.90;;;;;;5053147;28;20587;-80
2024/01/10 10:55:27;;;;;;;1999.90;999.90;;;2.40;99.90;;;;;;5060263;28;20523;-80
2024/01/10 10:57:55;;;;;;;1999.90;999.90;;;2.20;99.90;;;;;;5054145;28;20040;-83
2024/01/10 11:00:26;;;;;;;1999.90;999.90;;;2.00;99.90;;;;;;5055974;28;20082;-79
2024/01/10 11:02:53;;;;;;;1999.90;999.90;;;2.00;99.90;;;;;;5056182;28;20033;-82
2024/01/10 11:05:20;;;;;;;1999.90;999.90;;;1.90;99.90;;;;;;5046911;28;20026;-82
2024/01/10 11:07:49;;;;;;;1999.90;999.90;;;1.80;99.90;;;;;;5033619;28;20484;-78
2024/01/10 11:10:17;;;;;;;1999.90;999.90;;;2.00;99.90;;;;;;5065698;28;20438;-78
2024/01/10 11:13:20;;;;;;;1999.90;999.90;;;2.10;99.90;;;;;;5061096;28;20075;-78
2024/01/10 11:16:00;;;;;;;1999.90;999.90;;;2.10;99.90;;;;;;5061637;28;20049;-78
2024/01/10 11:18:53;;;;;;;1999.90;999.90;;;2.00;99.90;;;;;;5059884;28;20017;-78
2024/01/10 11:21:27;;;;;;;1999.90;999.90;;;1.90;99.90;;;;;;5048110;28;20017;-79
2024/01/10 11:23:56;;;;;;;1999.90;999.90;;;1.70;99.90;;;;;;5049777;28;20473;-79
2024/01/10 11:26:21;;;;;;;1999.90;999.90;;;1.70;99.90;;;;;;5067959;28;20029;-81
2024/01/10 11:28:48;;;;;;;1999.90;999.90;;;1.80;99.90;;;;;;5051290;28;20039;-80
2024/01/10 12:05:50;;;;;;;1999.90;999.90;;;1.90;99.90;;;;;;5082007;27;20515;-77
2024/01/10 12:08:16;;;;;;;1999.90;999.90;;;1.70;99.90;;;;;;5101700;28;20142;-75
2024/01/10 12:10:42;;;;;;;1999.90;999.90;;;1.70;99.90;;;;;;5107419;28;20081;-75
2024/01/10 12:13:07;;;;;;;1999.90;999.90;;;1.70;99.90;;;;;;5099559;28;20425;-74
2024/01/10 12:15:33;;;;;;;1999.90;999.90;;;1.60;99.90;;;;;;5083424;28;20020;-81
2024/01/10 12:17:59;;;;;;;1999.90;999.90;;;1.70;99.90;;;;;;5085868;28;20078;-74
2024/01/10 12:20:25;;;;;;;1999.90;999.90;;;1.70;99.90;;;;;;5092030;28;20028;-74
2024/01/10 12:22:50;;;;;;;1999.90;999.90;;;1.70;99.90;;;;;;5089817;28;20020;-77
2024/01/10 12:25:18;;;;;;;1999.90;999.90;;;1.80;99.90;;;;;;5093528;28;20027;-81
2024/01/10 12:27:44;;;;;;;1999.90;999.90;;;1.90;99.90;;;;;;5096982;28;20075;-74
2024/01/10 12:30:09;;;;;;;1999.90;999.90;;;1.90;99.90;;;;;;5088997;28;20306;-79
2024/01/10 12:32:35;;;;;;;1999.90;999.90;;;2.10;99.90;;;;;;5078792;28;20021;-72
2024/01/10 12:35:05;;;;;;;1999.90;999.90;;;2.20;99.90;;;;;;5090629;28;20032;-79
2024/01/10 12:37:31;;;;;;;1999.90;999.90;;;2.30;99.90;;;;;;5104633;28;20050;-70
2024/01/10 12:39:57;;;;;;;1999.90;999.90;;;2.40;99.90;;;;;;5095647;28;20369;-71
2024/01/10 12:42:23;;;;;;;1999.90;999.90;;;2.20;99.90;;;;;;5096300;28;20028;-72
2024/01/10 12:44:49;;;;;;;1999.90;999.90;;;2.30;99.90;;;;;;5095488;28;20163;-71
2024/01/10 12:47:19;;;;;;;1999.90;999.90;;;2.20;99.90;;;;;;5103036;28;20020;-71
2024/01/10 12:49:45;;;;;;;1999.90;999.90;;;2.20;99.90;;;;;;5098945;28;20032;-78
2024/01/10 12:52:13;;;;;;;1999.90;999.90;;;2.20;99.90;;;;;;5093622;28;20787;-78